Time;durP1;ratioP1;P1;durP2;ratioP2;P2;SDS_P1;SDS_P2;PMS_P1;PMS_P2;Temp;Humidity;BMP_temperature;BMP_pressure;BME280_temperature;BME280_humidity;BME280_pressure;Samples;Min_cycle;Max_cycle;Signal;HPM_P1;HPM_P2
2022/08/10 00:00:33;;;;;;;9.02;3.15;;;19.60;99.90;;;;;;5053383;28;20170;-69
2022/08/10 00:02:59;;;;;;;12.00;2.83;;;19.60;99.90;;;;;;5052104;28;20204;-69
2022/08/10 00:05:27;;;;;;;4.80;2.70;;;19.60;99.90;;;;;;5053280;28;20183;-69
2022/08/10 00:07:53;;;;;;;8.85;2.50;;;19.60;99.90;;;;;;5053554;28;20173;-69
2022/08/10 00:10:21;;;;;;;9.25;2.70;;;19.70;99.90;;;;;;5053348;28;20256;-70
2022/08/10 00:12:48;;;;;;;7.90;2.83;;;19.80;99.90;;;;;;5053147;28;20216;-69
2022/08/10 00:15:15;;;;;;;6.38;2.85;;;19.80;99.90;;;;;;5053130;28;20177;-69
2022/08/10 00:17:41;;;;;;;8.05;2.70;;;19.70;99.90;;;;;;5053085;28;20652;-68
2022/08/10 00:20:09;;;;;;;3.40;2.35;;;19.80;99.90;;;;;;5053037;28;20208;-70
2022/08/10 00:22:34;;;;;;;11.90;2.70;;;19.90;99.90;;;;;;5052981;28;20169;-70
2022/08/10 00:25:01;;;;;;;9.38;3.13;;;20.00;99.90;;;;;;5053040;28;20294;-69
2022/08/10 00:27:28;;;;;;;5.53;2.88;;;20.00;99.90;;;;;;5052973;28;20189;-70
2022/08/10 00:29:54;;;;;;;8.18;2.67;;;19.90;99.90;;;;;;5052806;28;20181;-69
2022/08/10 00:32:20;;;;;;;9.55;2.30;;;20.00;99.90;;;;;;5052853;28;20193;-69
2022/08/10 00:34:46;;;;;;;7.88;2.22;;;20.10;99.90;;;;;;5052510;28;20688;-69
2022/08/10 00:37:16;;;;;;;6.07;2.28;;;20.10;99.90;;;;;;5052598;28;20252;-69
2022/08/10 00:39:42;;;;;;;7.57;2.25;;;20.20;99.90;;;;;;5052572;28;20157;-69
2022/08/10 00:42:09;;;;;;;8.50;2.30;;;20.20;99.90;;;;;;5052630;28;20169;-69
2022/08/10 00:44:40;;;;;;;4.93;2.10;;;20.20;99.90;;;;;;5052520;28;20205;-69
2022/08/10 00:47:07;;;;;;;4.15;1.90;;;20.20;99.90;;;;;;5052514;28;20260;-67
2022/08/10 00:49:33;;;;;;;6.32;2.10;;;20.10;99.90;;;;;;5052464;28;20192;-71
2022/08/10 00:51:59;;;;;;;7.07;2.30;;;20.20;99.90;;;;;;5052547;28;20536;-70
2022/08/10 00:54:25;;;;;;;5.20;2.35;;;20.20;99.90;;;;;;5052626;28;20173;-69
2022/08/10 00:56:51;;;;;;;7.20;1.88;;;20.10;99.90;;;;;;5052557;28;20161;-69
2022/08/10 00:59:16;;;;;;;8.48;2.38;;;20.10;99.90;;;;;;5052279;28;20169;-68
2022/08/10 01:01:42;;;;;;;4.63;2.22;;;20.10;99.90;;;;;;5052142;28;20235;-67
2022/08/10 01:04:08;;;;;;;4.20;2.13;;;20.00;99.90;;;;;;5051338;28;20209;-68
2022/08/10 01:06:46;;;;;;;3.47;1.90;;;20.00;99.90;;;;;;5052177;28;20172;-67
2022/08/10 01:09:33;;;;;;;13.52;2.13;;;20.10;99.90;;;;;;5052067;28;20213;-69
2022/08/10 01:12:11;;;;;;;4.05;2.22;;;20.10;99.90;;;;;;5052083;28;20546;-68
2022/08/10 01:14:46;;;;;;;5.43;2.00;;;20.10;99.90;;;;;;5050810;28;20578;-69
2022/08/10 01:17:20;;;;;;;6.30;2.33;;;20.10;99.90;;;;;;5050705;28;20267;-68
2022/08/10 01:19:57;;;;;;;5.40;2.10;;;20.10;99.90;;;;;;5051770;28;20659;-69
2022/08/10 01:23:00;;;;;;;6.68;2.20;;;20.00;99.90;;;;;;5050388;28;20546;-66
2022/08/10 01:25:32;;;;;;;5.75;2.20;;;20.00;99.90;;;;;;5051706;28;20184;-68
2022/08/10 01:28:24;;;;;;;6.05;1.95;;;19.90;99.90;;;;;;5051785;28;20172;-68
2022/08/10 01:30:55;;;;;;;9.38;2.22;;;19.90;99.90;;;;;;5040439;28;20192;-68
2022/08/10 01:33:34;;;;;;;5.95;2.40;;;19.90;99.90;;;;;;5051681;28;20628;-68
2022/08/10 01:36:21;;;;;;;10.32;2.28;;;19.90;99.90;;;;;;5051361;28;20224;-68
2022/08/10 01:38:50;;;;;;;4.05;2.38;;;19.80;99.90;;;;;;5051658;28;20162;-67
2022/08/10 01:41:18;;;;;;;4.90;1.83;;;19.80;99.90;;;;;;5051331;28;20713;-68
2022/08/10 01:43:52;;;;;;;7.60;2.50;;;19.90;99.90;;;;;;5051304;28;20212;-68
2022/08/10 01:46:21;;;;;;;4.28;2.20;;;19.80;99.90;;;;;;5051304;28;20511;-68
2022/08/10 01:48:52;;;;;;;8.60;2.58;;;19.80;99.90;;;;;;5051415;28;20259;-68
2022/08/10 01:51:31;;;;;;;8.23;2.50;;;19.80;99.90;;;;;;5051338;28;20205;-69
2022/08/10 01:54:21;;;;;;;7.30;2.03;;;19.70;99.90;;;;;;5049884;28;20510;-68
2022/08/10 01:56:51;;;;;;;9.88;2.40;;;19.70;99.90;;;;;;5050990;28;20188;-68
2022/08/10 01:59:28;;;;;;;8.07;2.40;;;19.70;99.90;;;;;;5051129;28;20541;-68
2022/08/10 02:02:08;;;;;;;4.85;2.42;;;19.60;99.90;;;;;;5051316;28;20530;-68
2022/08/10 02:04:36;;;;;;;5.78;2.15;;;19.50;99.90;;;;;;5051257;28;20217;-68
2022/08/10 02:07:03;;;;;;;6.22;2.30;;;19.40;99.90;;;;;;5051067;28;20173;-68
2022/08/10 02:09:35;;;;;;;6.68;2.22;;;19.40;99.90;;;;;;5051127;28;20185;-67
2022/08/10 02:12:07;;;;;;;5.85;2.47;;;19.40;99.90;;;;;;5050995;28;20648;-68
2022/08/10 02:14:37;;;;;;;5.07;2.45;;;19.30;99.90;;;;;;5050761;28;20177;-66
2022/08/10 02:17:07;;;;;;;4.00;2.30;;;19.30;99.90;;;;;;5050964;28;20157;-68
2022/08/10 02:19:35;;;;;;;8.23;2.60;;;19.30;99.90;;;;;;5050922;28;20659;-68
2022/08/10 02:22:02;;;;;;;7.57;2.13;;;19.30;99.90;;;;;;5050853;28;20173;-68
2022/08/10 02:24:29;;;;;;;6.45;2.35;;;19.20;99.90;;;;;;5050751;28;20674;-68
2022/08/10 02:26:56;;;;;;;8.20;2.72;;;19.20;99.90;;;;;;5050776;28;20651;-68
2022/08/10 02:29:23;;;;;;;7.97;2.63;;;19.10;99.90;;;;;;5050715;28;20657;-68
2022/08/10 02:31:50;;;;;;;4.40;2.30;;;19.00;99.90;;;;;;5050713;28;20189;-69
2022/08/10 02:34:16;;;;;;;8.85;2.22;;;19.00;99.90;;;;;;5050595;28;20173;-68
2022/08/10 02:36:48;;;;;;;6.75;2.72;;;18.90;99.90;;;;;;5050732;28;20188;-68
2022/08/10 02:39:16;;;;;;;5.88;2.90;;;18.90;99.90;;;;;;5050672;28;20336;-68
2022/08/10 02:41:49;;;;;;;9.40;2.60;;;18.80;99.90;;;;;;5050663;28;20173;-67
2022/08/10 02:44:25;;;;;;;4.32;2.38;;;18.80;99.90;;;;;;5050680;28;20212;-68
2022/08/10 02:47:02;;;;;;;6.95;2.15;;;18.70;99.90;;;;;;5050908;28;20176;-68
2022/08/10 02:50:03;;;;;;;8.15;2.58;;;18.70;99.90;;;;;;5050567;28;20654;-68
2022/08/10 02:52:35;;;;;;;4.13;1.95;;;18.70;99.90;;;;;;5046860;28;20181;-68
2022/08/10 02:55:08;;;;;;;4.70;2.35;;;18.70;99.90;;;;;;5050777;28;20250;-67
2022/08/10 02:57:39;;;;;;;8.60;2.60;;;18.70;99.90;;;;;;5050386;28;20177;-67
2022/08/10 03:00:08;;;;;;;7.90;2.50;;;18.70;99.90;;;;;;5050527;28;20169;-68
2022/08/10 03:02:37;;;;;;;4.20;2.10;;;18.60;99.90;;;;;;5050416;28;20173;-68
2022/08/10 03:05:09;;;;;;;5.65;2.45;;;18.50;99.90;;;;;;5050447;28;20561;-68
2022/08/10 03:07:45;;;;;;;6.50;2.20;;;18.50;99.90;;;;;;5050412;28;20166;-68
2022/08/10 03:10:15;;;;;;;9.80;2.55;;;18.50;99.90;;;;;;5050472;28;20221;-68
2022/08/10 03:12:43;;;;;;;9.43;2.83;;;18.40;99.90;;;;;;5050453;28;20746;-68
2022/08/10 03:15:11;;;;;;;6.97;2.63;;;18.40;99.90;;;;;;5050389;28;20204;-69
2022/08/10 03:17:40;;;;;;;18.90;3.28;;;18.30;99.90;;;;;;5050293;28;20641;-68
2022/08/10 03:20:06;;;;;;;8.27;2.83;;;18.30;99.90;;;;;;5050410;28;20177;-67
2022/08/10 03:22:33;;;;;;;8.40;2.88;;;18.30;99.90;;;;;;5050428;28;20184;-68
2022/08/10 03:25:00;;;;;;;4.03;2.22;;;18.20;99.90;;;;;;5050160;28;20675;-68
2022/08/10 03:27:26;;;;;;;4.65;2.17;;;18.20;99.90;;;;;;5052058;28;20252;-67
2022/08/10 03:29:54;;;;;;;6.72;2.70;;;18.20;99.90;;;;;;5053920;28;20603;-68
2022/08/10 03:32:22;;;;;;;9.63;2.60;;;18.10;99.90;;;;;;5054131;28;20179;-67
2022/08/10 03:34:48;;;;;;;5.30;2.85;;;18.10;99.90;;;;;;5053941;28;20224;-69
2022/08/10 03:37:14;;;;;;;11.07;2.78;;;18.10;99.90;;;;;;5054031;28;20181;-67
2022/08/10 03:39:39;;;;;;;7.10;2.70;;;18.10;99.90;;;;;;5053780;28;20272;-68
2022/08/10 03:42:09;;;;;;;6.38;3.33;;;18.10;99.90;;;;;;5053701;28;20193;-68
2022/08/10 03:44:36;;;;;;;6.07;2.53;;;18.00;99.90;;;;;;5053558;28;20209;-68
2022/08/10 03:47:04;;;;;;;7.85;2.67;;;18.00;99.90;;;;;;5053743;28;20222;-68
2022/08/10 03:49:31;;;;;;;10.50;3.08;;;18.00;99.90;;;;;;5053460;28;20204;-69
2022/08/10 03:51:57;;;;;;;8.45;2.85;;;18.00;99.90;;;;;;5053472;28;20219;-68
2022/08/10 03:54:24;;;;;;;8.50;3.10;;;17.90;99.90;;;;;;5053519;28;20592;-69
2022/08/10 03:56:50;;;;;;;6.45;2.78;;;16.60;99.90;;;;;;5053503;28;20177;-68
2022/08/10 03:59:16;;;;;;;4.38;2.83;;;17.80;99.90;;;;;;5053614;28;20177;-68
2022/08/10 04:01:44;;;;;;;6.43;2.67;;;17.80;99.90;;;;;;5053404;28;20169;-69
2022/08/10 04:04:10;;;;;;;6.32;2.90;;;17.80;99.90;;;;;;5053259;28;20694;-69
2022/08/10 04:06:37;;;;;;;6.28;2.92;;;17.70;99.90;;;;;;5053221;28;20169;-69
2022/08/10 04:09:03;;;;;;;5.47;2.72;;;17.70;99.90;;;;;;5053320;28;20201;-70
2022/08/10 04:11:29;;;;;;;6.95;2.75;;;17.60;99.90;;;;;;5053113;28;20166;-69
2022/08/10 04:13:55;;;;;;;9.18;3.13;;;17.60;99.90;;;;;;5053047;28;20172;-69
2022/08/10 04:16:20;;;;;;;6.68;3.38;;;17.60;99.90;;;;;;5053029;28;20165;-70
2022/08/10 04:18:46;;;;;;;4.85;2.80;;;17.60;99.90;;;;;;5052966;28;20509;-69
2022/08/10 04:21:17;;;;;;;6.43;2.80;;;17.60;99.90;;;;;;5053041;28;20535;-69
2022/08/10 04:23:48;;;;;;;8.30;2.90;;;17.50;99.90;;;;;;5052784;28;20693;-68
2022/08/10 04:26:15;;;;;;;6.68;3.08;;;17.50;99.90;;;;;;5052942;28;20173;-69
2022/08/10 04:28:41;;;;;;;7.18;2.97;;;17.50;99.90;;;;;;5053024;28;20252;-69
2022/08/10 04:31:09;;;;;;;7.22;2.70;;;17.50;99.90;;;;;;5052919;28;20166;-69
2022/08/10 04:33:38;;;;;;;7.22;2.88;;;17.40;99.90;;;;;;5052729;28;20307;-70
2022/08/10 04:36:06;;;;;;;10.50;2.92;;;17.40;99.90;;;;;;5052528;28;20607;-70
2022/08/10 04:38:33;;;;;;;4.72;2.78;;;17.40;99.90;;;;;;5051478;28;20776;-68
2022/08/10 04:41:00;;;;;;;4.85;3.00;;;17.40;99.90;;;;;;5052666;28;20184;-68
2022/08/10 04:43:26;;;;;;;7.57;2.80;;;17.30;99.90;;;;;;5052411;28;20581;-69
2022/08/10 04:45:52;;;;;;;10.57;3.22;;;17.30;99.90;;;;;;5052446;28;20176;-69
2022/08/10 04:48:20;;;;;;;7.15;3.17;;;17.20;99.90;;;;;;5052498;28;20177;-69
2022/08/10 04:50:46;;;;;;;7.65;3.35;;;17.10;99.90;;;;;;5052409;28;20611;-69
2022/08/10 04:53:11;;;;;;;6.07;3.08;;;17.00;99.90;;;;;;5051349;28;20166;-69
2022/08/10 04:55:37;;;;;;;8.30;3.40;;;16.90;99.90;;;;;;5052432;28;20165;-68
2022/08/10 04:58:03;;;;;;;7.40;3.17;;;16.80;99.90;;;;;;5052260;28;20218;-68
2022/08/10 05:00:29;;;;;;;7.65;3.42;;;16.70;99.90;;;;;;5052267;28;20536;-68
2022/08/10 05:02:54;;;;;;;5.75;3.28;;;16.60;99.90;;;;;;5052279;28;20539;-68
2022/08/10 05:05:20;;;;;;;6.13;2.83;;;16.50;99.90;;;;;;5052240;28;20173;-68
2022/08/10 05:07:46;;;;;;;5.57;3.08;;;16.50;99.90;;;;;;5052107;28;20175;-69
2022/08/10 05:10:11;;;;;;;9.80;3.10;;;16.40;99.90;;;;;;5052327;28;20279;-69
2022/08/10 05:12:37;;;;;;;8.88;2.88;;;16.40;99.90;;;;;;5052004;28;20169;-68
2022/08/10 05:15:08;;;;;;;10.15;4.00;;;16.40;99.90;;;;;;5051927;28;20169;-69
2022/08/10 05:17:35;;;;;;;6.35;3.40;;;16.40;99.90;;;;;;5051840;28;20173;-68
2022/08/10 05:20:02;;;;;;;8.30;3.35;;;16.30;99.90;;;;;;5051814;28;20232;-68
2022/08/10 05:22:28;;;;;;;7.78;3.40;;;16.30;99.90;;;;;;5050843;28;20177;-69
2022/08/10 05:24:53;;;;;;;6.50;3.50;;;16.30;99.90;;;;;;5051600;28;20212;-67
2022/08/10 05:27:19;;;;;;;9.68;3.47;;;16.30;99.90;;;;;;5051705;28;20169;-68
2022/08/10 05:29:45;;;;;;;8.38;3.55;;;16.30;99.90;;;;;;5051569;28;20205;-70
2022/08/10 05:32:10;;;;;;;5.78;3.47;;;16.40;99.90;;;;;;5050255;28;20181;-68
2022/08/10 05:34:36;;;;;;;8.18;3.55;;;16.30;99.90;;;;;;5051165;28;20223;-68
2022/08/10 05:37:04;;;;;;;7.25;3.42;;;16.40;99.90;;;;;;5051432;28;20169;-69
2022/08/10 05:39:30;;;;;;;7.00;3.50;;;16.40;99.90;;;;;;5051567;28;20484;-69
2022/08/10 05:41:57;;;;;;;7.65;3.38;;;16.40;99.90;;;;;;5051631;28;20192;-69
2022/08/10 05:44:23;;;;;;;8.68;3.90;;;16.50;99.90;;;;;;5051291;28;20208;-70
2022/08/10 05:46:49;;;;;;;10.63;3.55;;;16.50;99.90;;;;;;5051591;28;20173;-70
2022/08/10 05:49:15;;;;;;;6.57;3.72;;;16.60;99.90;;;;;;5051096;28;20871;-69
2022/08/10 05:51:42;;;;;;;11.32;3.60;;;16.60;99.90;;;;;;5051254;28;20223;-69
2022/08/10 05:54:14;;;;;;;7.53;3.50;;;16.70;99.90;;;;;;5051360;28;20545;-68
2022/08/10 05:56:42;;;;;;;7.30;3.55;;;16.70;99.90;;;;;;5051297;28;20166;-69
2022/08/10 05:59:13;;;;;;;9.73;3.65;;;16.80;99.90;;;;;;5051125;28;20207;-69
2022/08/10 06:01:42;;;;;;;8.30;3.60;;;16.80;99.90;;;;;;5051122;28;20211;-68
2022/08/10 06:04:10;;;;;;;10.52;4.10;;;16.80;99.90;;;;;;5051062;28;20236;-69
2022/08/10 06:06:37;;;;;;;11.07;4.05;;;16.80;99.90;;;;;;5051290;28;20196;-69
2022/08/10 06:09:04;;;;;;;5.55;3.17;;;16.90;99.90;;;;;;5050994;28;20181;-68
2022/08/10 06:11:32;;;;;;;7.10;3.53;;;16.90;99.90;;;;;;5050946;28;20209;-68
2022/08/10 06:16:44;;;;;;;9.60;3.38;;;17.00;99.90;;;;;;5050963;28;20199;-69
2022/08/10 06:19:13;;;;;;;7.30;3.25;;;17.10;99.90;;;;;;5051013;28;20169;-69
2022/08/10 06:21:40;;;;;;;9.40;3.92;;;17.20;99.90;;;;;;5050993;28;20239;-68
2022/08/10 06:24:09;;;;;;;12.38;3.90;;;17.20;99.90;;;;;;5050780;28;20216;-68
2022/08/10 06:26:36;;;;;;;8.88;3.83;;;17.30;99.90;;;;;;5050723;28;20186;-68
2022/08/10 06:29:08;;;;;;;11.13;3.70;;;17.40;99.90;;;;;;5050716;28;20192;-68
2022/08/10 06:31:47;;;;;;;9.52;4.00;;;17.50;99.90;;;;;;5050837;28;20188;-69
2022/08/10 06:34:14;;;;;;;7.85;3.90;;;17.60;99.90;;;;;;5050581;28;20267;-68
2022/08/10 06:36:42;;;;;;;8.30;3.88;;;17.70;99.90;;;;;;5050675;28;20184;-67
2022/08/10 06:39:08;;;;;;;8.35;3.38;;;17.80;99.90;;;;;;5050664;28;20264;-68
2022/08/10 06:41:40;;;;;;;12.65;4.28;;;17.90;99.90;;;;;;5050730;28;20253;-68
2022/08/10 06:44:10;;;;;;;19.67;3.88;;;16.60;99.90;;;;;;5050616;28;20314;-68
2022/08/10 06:46:39;;;;;;;6.95;3.53;;;18.00;99.90;;;;;;5050660;28;20252;-68
2022/08/10 06:49:07;;;;;;;6.35;3.05;;;18.20;99.90;;;;;;5050713;28;20180;-68
2022/08/10 06:51:35;;;;;;;18.15;3.80;;;18.30;99.90;;;;;;5050695;28;20370;-68
2022/08/10 06:54:06;;;;;;;10.80;3.60;;;18.40;99.90;;;;;;5050586;28;20157;-68
2022/08/10 06:56:37;;;;;;;14.18;4.00;;;18.50;99.90;;;;;;5050798;28;20201;-68
2022/08/10 06:59:17;;;;;;;9.77;3.63;;;18.50;99.90;;;;;;5050426;28;20632;-67
2022/08/10 07:01:47;;;;;;;14.30;3.42;;;18.70;99.90;;;;;;5050880;28;20185;-68
2022/08/10 07:04:19;;;;;;;12.35;3.20;;;18.80;99.90;;;;;;5054263;28;20201;-67
2022/08/10 07:06:48;;;;;;;9.93;3.40;;;18.90;99.90;;;;;;5052814;28;20174;-67
2022/08/10 07:09:15;;;;;;;8.20;3.45;;;19.00;99.90;;;;;;5054177;28;20235;-67
2022/08/10 07:11:43;;;;;;;12.27;3.63;;;19.10;99.90;;;;;;5054507;28;20195;-68
2022/08/10 07:14:12;;;;;;;8.45;2.80;;;19.20;99.90;;;;;;5054265;28;20203;-67
2022/08/10 07:16:41;;;;;;;5.72;3.03;;;19.40;99.90;;;;;;5054058;28;20173;-67
2022/08/10 07:19:09;;;;;;;3.90;2.50;;;19.50;99.90;;;;;;5054110;28;20173;-67
2022/08/10 07:21:40;;;;;;;9.00;2.60;;;19.70;99.90;;;;;;5054246;28;20181;-68
2022/08/10 07:24:09;;;;;;;6.95;2.47;;;19.80;99.90;;;;;;5054118;28;20208;-68
2022/08/10 07:26:36;;;;;;;6.88;2.53;;;19.90;99.90;;;;;;5054105;28;20173;-67
2022/08/10 07:29:05;;;;;;;7.78;2.30;;;20.00;99.90;;;;;;5054038;28;20188;-67
2022/08/10 07:31:31;;;;;;;8.65;2.70;;;20.10;99.90;;;;;;5053823;28;20169;-67
2022/08/10 07:33:58;;;;;;;5.82;2.40;;;20.20;99.90;;;;;;5053813;28;20234;-67
2022/08/10 07:36:25;;;;;;;12.75;2.53;;;20.30;99.90;;;;;;5053694;28;20271;-68
2022/08/10 07:38:54;;;;;;;8.27;2.45;;;20.30;99.90;;;;;;5053682;28;20200;-68
2022/08/10 07:41:23;;;;;;;9.32;2.65;;;20.40;99.90;;;;;;5053744;28;20173;-67
2022/08/10 07:43:50;;;;;;;6.47;2.17;;;20.50;99.90;;;;;;5053622;28;20288;-68
2022/08/10 07:46:20;;;;;;;13.68;2.67;;;20.60;99.90;;;;;;5052336;28;20643;-69
2022/08/10 07:48:49;;;;;;;5.20;2.33;;;20.80;99.90;;;;;;5053792;28;20169;-68
2022/08/10 07:51:18;;;;;;;8.77;2.72;;;20.80;99.90;;;;;;5054126;28;20623;-67
2022/08/10 07:53:54;;;;;;;6.68;2.20;;;20.90;99.90;;;;;;5053648;28;20180;-67
2022/08/10 07:56:26;;;;;;;11.13;2.72;;;21.00;99.90;;;;;;5053470;28;20260;-68
2022/08/10 07:59:23;;;;;;;9.13;3.03;;;21.10;99.90;;;;;;5053392;28;20174;-68
2022/08/10 08:01:52;;;;;;;9.82;2.45;;;21.30;99.90;;;;;;5053055;28;20272;-69
2022/08/10 08:04:20;;;;;;;6.25;2.28;;;21.30;99.90;;;;;;5053039;28;20267;-68
2022/08/10 08:06:47;;;;;;;8.70;2.85;;;21.30;99.90;;;;;;5052102;28;20161;-68
2022/08/10 08:09:13;;;;;;;7.07;1.92;;;21.40;99.90;;;;;;5053364;28;20200;-68
2022/08/10 08:11:42;;;;;;;8.25;2.40;;;21.40;99.90;;;;;;5053048;28;20675;-68
2022/08/10 08:14:09;;;;;;;5.60;1.80;;;21.60;99.90;;;;;;5052767;28;20191;-69
2022/08/10 08:16:42;;;;;;;8.27;2.08;;;21.70;99.90;;;;;;5053095;28;20658;-67
2022/08/10 08:19:09;;;;;;;19.92;2.38;;;21.70;99.90;;;;;;5053020;28;20182;-68
2022/08/10 08:21:36;;;;;;;9.57;2.55;;;21.90;99.90;;;;;;5052923;28;20574;-67
2022/08/10 08:24:02;;;;;;;8.20;1.90;;;22.30;99.90;;;;;;5052921;28;20213;-68
2022/08/10 08:26:28;;;;;;;14.48;2.17;;;22.30;99.90;;;;;;5052912;28;20169;-68
2022/08/10 08:28:55;;;;;;;10.45;2.50;;;22.50;99.90;;;;;;5052947;28;20173;-67
2022/08/10 08:31:22;;;;;;;4.95;2.00;;;23.40;99.90;;;;;;5052981;28;20170;-68
2022/08/10 08:33:48;;;;;;;7.00;2.25;;;24.90;99.90;;;;;;5052677;28;20169;-68
2022/08/10 08:36:17;;;;;;;7.57;1.85;;;26.30;99.90;;;;;;5051392;28;20270;-69
2022/08/10 08:38:44;;;;;;;4.35;1.90;;;27.30;99.90;;;;;;5052705;28;20180;-69
2022/08/10 08:41:52;;;;;;;13.27;2.10;;;28.30;99.90;;;;;;5052708;28;20165;-69
2022/08/10 08:44:25;;;;;;;3.22;1.48;;;29.10;99.90;;;;;;5040227;28;20212;-69
2022/08/10 08:47:09;;;;;;;6.70;1.63;;;28.50;99.90;;;;;;5052613;28;20177;-68
2022/08/10 08:49:48;;;;;;;9.05;1.63;;;28.80;99.90;;;;;;5052641;28;20189;-69
2022/08/10 08:52:41;;;;;;;4.40;1.40;;;28.80;99.90;;;;;;5052294;28;20674;-68
2022/08/10 08:55:27;;;;;;;5.43;1.58;;;29.00;99.90;;;;;;5050957;28;20172;-68
2022/08/10 08:58:11;;;;;;;5.90;1.38;;;29.20;99.90;;;;;;5052512;28;20247;-67
2022/08/10 09:00:49;;;;;;;5.82;1.50;;;29.70;99.90;;;;;;5050977;28;20551;-69
2022/08/10 09:03:48;;;;;;;10.57;1.83;;;30.30;99.90;;;;;;5052174;28;20243;-66
2022/08/10 09:06:38;;;;;;;2.72;1.10;;;30.60;99.90;;;;;;5052151;28;20677;-69
2022/08/10 09:09:51;;;;;;;9.63;1.80;;;30.50;99.90;;;;;;5052231;28;20168;-68
2022/08/10 09:12:35;;;;;;;6.28;1.90;;;30.60;99.90;;;;;;5039784;28;20177;-69
2022/08/10 09:15:16;;;;;;;6.15;1.60;;;29.00;99.90;;;;;;5051952;28;20169;-68
2022/08/10 09:17:52;;;;;;;4.43;1.48;;;28.50;99.90;;;;;;5051911;28;20177;-67
2022/08/10 09:20:41;;;;;;;6.72;1.60;;;28.00;99.90;;;;;;5051978;28;20180;-68
2022/08/10 09:23:34;;;;;;;7.30;1.42;;;28.20;99.90;;;;;;5051800;28;20209;-67
2022/08/10 09:26:21;;;;;;;3.60;1.60;;;27.80;99.90;;;;;;5051019;28;20268;-67
2022/08/10 09:28:51;;;;;;;5.95;1.40;;;27.90;99.90;;;;;;5051726;28;20205;-68
2022/08/10 09:31:22;;;;;;;5.13;1.40;;;28.20;99.90;;;;;;5051822;28;20227;-67
2022/08/10 09:34:12;;;;;;;5.10;1.58;;;28.40;99.90;;;;;;5051700;28;20165;-68
2022/08/10 09:37:02;;;;;;;4.22;1.27;;;28.50;99.90;;;;;;5051414;28;20359;-67
2022/08/10 09:39:37;;;;;;;3.40;1.30;;;28.20;99.90;;;;;;5051694;28;20663;-68
2022/08/10 09:42:09;;;;;;;4.22;1.25;;;28.60;99.90;;;;;;5051708;28;20180;-67
2022/08/10 09:45:00;;;;;;;6.22;1.50;;;28.80;99.90;;;;;;5050012;28;20267;-67
2022/08/10 09:47:26;;;;;;;14.98;1.58;;;28.70;99.90;;;;;;5050264;28;20176;-67
2022/08/10 09:50:10;;;;;;;7.35;1.55;;;28.50;99.90;;;;;;5051490;28;20173;-68
2022/08/10 09:53:04;;;;;;;4.22;1.40;;;29.10;99.90;;;;;;5051341;28;20173;-67
2022/08/10 09:55:59;;;;;;;5.85;1.30;;;29.40;99.90;;;;;;5051042;28;20201;-67
2022/08/10 09:58:42;;;;;;;4.50;1.27;;;29.60;99.90;;;;;;5051237;28;20255;-67
2022/08/10 10:01:37;;;;;;;2.78;1.40;;;29.90;99.90;;;;;;5051110;28;20523;-67
2022/08/10 10:04:12;;;;;;;7.05;1.50;;;30.00;99.90;;;;;;5046346;28;20322;-67
2022/08/10 10:06:57;;;;;;;7.25;1.40;;;30.40;99.90;;;;;;5051335;28;20531;-67
2022/08/10 10:09:31;;;;;;;4.43;1.50;;;31.10;99.90;;;;;;5051035;28;20165;-66
2022/08/10 10:12:15;;;;;;;4.10;1.20;;;29.80;99.90;;;;;;5050940;28;20172;-66
2022/08/10 10:15:22;;;;;;;6.55;1.50;;;29.30;99.90;;;;;;5051137;28;20226;-67
2022/08/10 10:18:06;;;;;;;5.30;1.60;;;30.10;99.90;;;;;;5028742;28;20239;-67
2022/08/10 10:20:34;;;;;;;7.40;1.20;;;31.00;99.90;;;;;;5012157;28;20170;-67
2022/08/10 10:23:05;;;;;;;4.32;1.60;;;31.40;99.90;;;;;;5041880;28;20189;-66
2022/08/10 10:25:55;;;;;;;5.75;1.50;;;32.90;99.90;;;;;;5050752;28;20169;-67
2022/08/10 10:28:48;;;;;;;7.28;1.73;;;33.00;99.90;;;;;;5050729;28;20204;-67
2022/08/10 10:31:43;;;;;;;12.52;1.88;;;33.00;99.90;;;;;;5051065;28;20180;-67
2022/08/10 10:34:34;;;;;;;4.50;1.70;;;33.70;99.90;;;;;;5050650;28;20195;-67
2022/08/10 10:37:01;;;;;;;7.40;2.05;;;34.30;99.90;;;;;;5053112;28;20193;-67
2022/08/10 10:39:30;;;;;;;4.20;1.40;;;34.30;99.90;;;;;;5053445;28;20743;-67
2022/08/10 10:42:06;;;;;;;8.32;1.48;;;34.60;99.90;;;;;;5054967;28;20168;-67
2022/08/10 10:44:46;;;;;;;11.13;1.40;;;35.10;99.90;;;;;;5054843;28;20300;-68
2022/08/10 10:47:45;;;;;;;5.32;1.48;;;34.90;99.90;;;;;;5054813;28;20180;-66
2022/08/10 10:50:32;;;;;;;4.00;1.40;;;35.10;99.90;;;;;;5054985;28;20373;-66
2022/08/10 10:53:26;;;;;;;11.77;1.50;;;35.30;99.90;;;;;;5054659;28;20173;-67
2022/08/10 10:56:21;;;;;;;4.75;1.33;;;35.60;99.90;;;;;;5054641;28;20200;-66
2022/08/10 10:59:10;;;;;;;3.28;1.23;;;36.30;99.90;;;;;;5054674;28;20655;-67
2022/08/10 11:01:52;;;;;;;7.20;1.90;;;36.60;99.40;;;;;;5053279;28;20262;-66
2022/08/10 11:04:48;;;;;;;7.68;1.40;;;35.90;97.50;;;;;;5054562;28;20212;-67
2022/08/10 11:07:20;;;;;;;7.43;1.50;;;35.50;98.30;;;;;;5046336;28;20184;-66
2022/08/10 11:09:58;;;;;;;6.38;1.55;;;34.70;96.90;;;;;;5054299;28;20271;-66
2022/08/10 11:12:47;;;;;;;6.93;1.55;;;34.30;96.40;;;;;;5052980;28;20183;-67
2022/08/10 11:15:25;;;;;;;7.45;1.35;;;34.90;97.30;;;;;;5054159;28;20179;-67
2022/08/10 11:18:04;;;;;;;5.60;1.60;;;34.80;97.30;;;;;;5070035;28;20263;-68
2022/08/10 11:20:42;;;;;;;4.15;1.30;;;35.70;97.00;;;;;;5054330;28;20211;-67
2022/08/10 11:23:30;;;;;;;7.82;1.50;;;35.70;96.90;;;;;;5054102;28;20171;-67
2022/08/10 11:26:09;;;;;;;9.80;1.55;;;36.30;95.90;;;;;;5052916;28;20176;-65
2022/08/10 11:28:43;;;;;;;6.90;1.20;;;36.50;95.40;;;;;;5053931;28;20218;-65
2022/08/10 11:31:20;;;;;;;6.22;1.50;;;36.60;95.40;;;;;;5053795;28;20179;-65
2022/08/10 11:34:02;;;;;;;5.45;1.40;;;36.40;94.90;;;;;;5054096;28;20195;-65
2022/08/10 11:36:34;;;;;;;8.68;1.30;;;36.60;94.90;;;;;;5053667;28;20220;-67
2022/08/10 11:39:23;;;;;;;7.50;1.33;;;37.50;94.00;;;;;;5053601;28;20173;-66
2022/08/10 11:42:05;;;;;;;5.18;1.40;;;37.60;93.80;;;;;;5053533;28;20634;-65
2022/08/10 11:44:44;;;;;;;6.15;1.50;;;38.50;93.10;;;;;;5053521;28;20212;-66
2022/08/10 11:47:16;;;;;;;6.97;1.42;;;38.00;92.10;;;;;;5053449;28;20169;-65
2022/08/10 11:49:54;;;;;;;2.55;1.23;;;38.30;92.00;;;;;;5053018;28;20173;-66
2022/08/10 11:52:23;;;;;;;4.03;1.25;;;38.50;92.40;;;;;;5053415;28;20168;-66
2022/08/10 11:54:57;;;;;;;6.43;1.40;;;38.70;91.20;;;;;;5053435;28;20169;-65
2022/08/10 11:57:29;;;;;;;5.50;1.40;;;38.60;90.30;;;;;;5053325;28;20269;-65
2022/08/10 11:59:55;;;;;;;3.17;1.30;;;37.50;90.70;;;;;;5053410;28;20172;-66
2022/08/10 12:02:24;;;;;;;2.60;1.42;;;36.60;90.20;;;;;;5053228;28;20662;-66
2022/08/10 12:05:19;;;;;;;4.55;1.30;;;36.20;90.90;;;;;;5053124;28;20269;-67
2022/08/10 12:07:56;;;;;;;4.28;1.20;;;37.40;91.10;;;;;;5052890;28;20180;-67
2022/08/10 12:10:23;;;;;;;15.15;1.50;;;37.80;89.60;;;;;;5053147;28;20226;-65
2022/08/10 12:13:01;;;;;;;4.70;1.45;;;37.40;90.20;;;;;;5053144;28;20177;-66
2022/08/10 12:15:53;;;;;;;5.43;1.20;;;38.50;90.00;;;;;;5053000;28;20175;-66
2022/08/10 12:18:24;;;;;;;3.03;1.10;;;38.90;88.60;;;;;;5052980;28;20747;-66
2022/08/10 12:20:56;;;;;;;5.53;1.45;;;36.50;90.20;;;;;;5053066;28;20204;-65
2022/08/10 12:23:39;;;;;;;5.57;1.52;;;36.30;90.40;;;;;;5052916;28;20165;-66
2022/08/10 12:26:17;;;;;;;6.20;1.45;;;37.90;90.40;;;;;;5053068;28;20271;-66
2022/08/10 12:28:49;;;;;;;7.22;1.30;;;38.70;87.50;;;;;;5052870;28;20175;-66
2022/08/10 12:31:16;;;;;;;5.55;1.40;;;39.10;86.80;;;;;;5052649;28;20650;-65
2022/08/10 12:34:18;;;;;;;8.00;1.48;;;38.90;85.90;;;;;;5052673;28;20737;-65
2022/08/10 12:36:52;;;;;;;3.70;1.27;;;39.20;87.00;;;;;;5048621;28;20729;-65
2022/08/10 12:39:31;;;;;;;5.78;1.50;;;39.80;84.20;;;;;;5052484;28;20168;-65
2022/08/10 12:42:06;;;;;;;5.32;1.30;;;39.80;84.10;;;;;;5052484;28;20195;-65
2022/08/10 12:44:41;;;;;;;2.08;1.20;;;39.60;81.70;;;;;;5052493;28;20239;-66
2022/08/10 12:47:37;;;;;;;2.80;1.10;;;39.70;83.80;;;;;;5052600;28;20181;-66
2022/08/10 12:50:20;;;;;;;5.22;1.30;;;40.10;81.90;;;;;;5052269;28;20177;-65
2022/08/10 12:53:04;;;;;;;5.85;1.70;;;39.70;81.70;;;;;;5052527;28;20314;-66
2022/08/10 12:55:31;;;;;;;5.38;1.35;;;40.00;82.30;;;;;;5052230;28;20172;-66
2022/08/10 12:57:58;;;;;;;8.68;1.42;;;40.50;84.20;;;;;;5052032;28;20185;-66
2022/08/10 13:00:30;;;;;;;3.40;1.17;;;40.30;81.90;;;;;;5051099;28;20189;-65
2022/08/10 13:02:59;;;;;;;2.35;1.23;;;40.20;81.50;;;;;;5052159;28;20188;-67
2022/08/10 13:05:27;;;;;;;1.90;1.10;;;40.20;77.90;;;;;;5051915;28;20277;-65
2022/08/10 13:11:16;;;;;;;1.55;1.10;;;37.50;78.20;;;;;;5051875;28;20581;-65
2022/08/10 13:13:44;;;;;;;3.67;1.20;;;36.20;78.10;;;;;;5051081;28;20180;-66
2022/08/10 13:16:11;;;;;;;5.57;1.02;;;36.60;79.20;;;;;;5051861;28;20316;-65
2022/08/10 13:18:42;;;;;;;2.83;1.33;;;36.60;79.50;;;;;;5051915;28;20185;-66
2022/08/10 13:21:13;;;;;;;3.97;1.20;;;37.30;78.80;;;;;;5050414;28;20164;-65